Milan Linate, Italy

8:38 AM CEST on July 27, 2016 (GMT +0200)
Peschiera Borromeo | | Change Station
Active Advisory: >

Elev 318 ft 45.42 °N, 9.31 °E | Updated 8 minutes ago

Scattered Clouds
Scattered Clouds
74.8 °F
Feels Like 75 °F
N
0.0
Wind Variable Wind from North
Gusts 0.0 mph

Today
High -- | Low -- °F
--% Chance of Precip.
Yesterday
High -- | Low -- °F
Precip. -- in
Pressure 29.98 in
Visibility 6.2 miles
Clouds Few 4000 ft
Scattered Clouds 6000 ft
Heat Index 75 °F
Dew Point 68 °F
Humidity 79%
Rainfall 0.00 in
Snow Depth Not available.
6:01 AM 8:56 PM
Waning Gibbous, 46% visible
METAR LIML 270620Z VRB02KT 9999 FEW040 SCT060 25/18 Q1015 NOSIG
Pressure 29.98 in
Visibility 6.2 miles
Clouds Few 4000 ft
Scattered Clouds 6000 ft
Heat Index 75 °F
Dew Point 68 °F
Humidity 79%
Rainfall 0.00 in
Snow Depth Not available.
6:01 AM 8:56 PM
Waning Gibbous, 46% visible
METAR LIML 270620Z VRB02KT 9999 FEW040 SCT060 25/18 Q1015 NOSIG

10-Day Weather Forecast

×

Almanac

Astronomy

Jul. 27, 2016 Rise Set
Actual Time
Civil Twilight
Nautical Twilight
Astronomical Twilight
Moon
Length of Visible Light
Length of Day
Tomorrow will be .
, % of the Moon is Illuminated

Today's Extremes

Country Highs Country Lows

Community

WunderPhotos

Upload Photos

1,927,818 photos uploaded!

WunderBlog® & News

Nearby

Air Quality

  Air Quality AQ Index Pollutant
Not available.

Snow Depth

Station Depth Elevation

Earthquake Activity

City Distance Mag. Time & Date
Minimum magnitude displayed is 2.5.

Coastal Water Temperatures

Place Temperature

Stations

Nearby Weather Stations

Station Location Temp. Windchill Dew Point Humidity Wind Precip. Elev Updated Type